sensor_id;sensor_type;location;lat;lon;timestamp;pressure;altitude;pressure_sealevel;temperature;humidity
70302;BME280;57706;56.326;43.882;2023-04-05T00:01:25;100736.25;;;9.98;54.14
70302;BME280;57706;56.326;43.882;2023-04-05T00:03:51;100732.13;;;9.96;54.62
70302;BME280;57706;56.326;43.882;2023-04-05T00:06:19;100731.44;;;9.94;54.79
70302;BME280;57706;56.326;43.882;2023-04-05T00:08:46;100726.72;;;9.79;55.06
70302;BME280;57706;56.326;43.882;2023-04-05T00:11:15;100726.31;;;9.74;55.63
70302;BME280;57706;56.326;43.882;2023-04-05T00:13:41;100731.56;;;9.74;55.62
70302;BME280;57706;56.326;43.882;2023-04-05T00:16:07;100729.66;;;9.76;55.20
70302;BME280;57706;56.326;43.882;2023-04-05T00:18:33;100724.41;;;9.76;55.19
70302;BME280;57706;56.326;43.882;2023-04-05T00:20:59;100718.75;;;9.71;55.59
70302;BME280;57706;56.326;43.882;2023-04-05T00:23:25;100731.44;;;9.75;55.29
70302;BME280;57706;56.326;43.882;2023-04-05T00:25:51;100728.66;;;9.77;55.20
70302;BME280;57706;56.326;43.882;2023-04-05T00:28:17;100729.41;;;9.69;55.33
70302;BME280;57706;56.326;43.882;2023-04-05T00:30:43;100728.72;;;9.67;55.22
70302;BME280;57706;56.326;43.882;2023-04-05T00:33:11;100738.81;;;9.62;55.40
70302;BME280;57706;56.326;43.882;2023-04-05T00:35:37;100734.19;;;9.56;55.79
70302;BME280;57706;56.326;43.882;2023-04-05T00:38:03;100735.88;;;9.47;56.09
70302;BME280;57706;56.326;43.882;2023-04-05T00:40:28;100738.94;;;9.42;56.49
70302;BME280;57706;56.326;43.882;2023-04-05T00:42:54;100743.13;;;9.35;56.52
70302;BME280;57706;56.326;43.882;2023-04-05T00:45:20;100739.59;;;9.26;56.64
70302;BME280;57706;56.326;43.882;2023-04-05T00:47:46;100738.78;;;9.16;56.87
70302;BME280;57706;56.326;43.882;2023-04-05T00:50:12;100728.78;;;9.01;57.33
70302;BME280;57706;56.326;43.882;2023-04-05T00:52:40;100731.03;;;8.86;58.24
70302;BME280;57706;56.326;43.882;2023-04-05T00:55:06;100733.00;;;8.74;58.00
70302;BME280;57706;56.326;43.882;2023-04-05T00:57:35;100729.56;;;8.64;58.21
70302;BME280;57706;56.326;43.882;2023-04-05T01:00:04;100728.78;;;8.53;58.61
70302;BME280;57706;56.326;43.882;2023-04-05T01:02:43;100732.34;;;8.43;58.65
70302;BME280;57706;56.326;43.882;2023-04-05T01:05:35;100730.44;;;8.35;58.28
70302;BME280;57706;56.326;43.882;2023-04-05T01:08:19;100732.22;;;8.24;58.78
70302;BME280;57706;56.326;43.882;2023-04-05T01:10:56;100739.81;;;8.18;59.62
70302;BME280;57706;56.326;43.882;2023-04-05T01:13:28;100744.22;;;8.07;59.80
70302;BME280;57706;56.326;43.882;2023-04-05T01:15:54;100744.75;;;8.01;60.35
70302;BME280;57706;56.326;43.882;2023-04-05T01:18:20;100737.31;;;7.96;60.36
70302;BME280;57706;56.326;43.882;2023-04-05T01:26:30;100746.00;;;7.87;60.28
70302;BME280;57706;56.326;43.882;2023-04-05T01:31:58;100744.44;;;7.75;61.67
70302;BME280;57706;56.326;43.882;2023-04-05T01:37:11;100755.19;;;7.71;61.54
70302;BME280;57706;56.326;43.882;2023-04-05T01:39:37;100748.56;;;7.67;61.24
70302;BME280;57706;56.326;43.882;2023-04-05T01:42:04;100746.09;;;7.66;61.84
70302;BME280;57706;56.326;43.882;2023-04-05T01:44:30;100750.63;;;7.64;62.93
70302;BME280;57706;56.326;43.882;2023-04-05T01:46:56;100760.53;;;7.60;62.67
70302;BME280;57706;56.326;43.882;2023-04-05T01:49:23;100755.56;;;7.57;62.93
70302;BME280;57706;56.326;43.882;2023-04-05T01:51:49;100755.44;;;7.58;62.84
70302;BME280;57706;56.326;43.882;2023-04-05T01:54:14;100760.53;;;7.60;62.72
70302;BME280;57706;56.326;43.882;2023-04-05T01:56:42;100758.75;;;7.61;62.77
70302;BME280;57706;56.326;43.882;2023-04-05T01:59:08;100766.47;;;7.62;62.36
70302;BME280;57706;56.326;43.882;2023-04-05T02:01:33;100756.00;;;7.62;62.56
70302;BME280;57706;56.326;43.882;2023-04-05T02:03:59;100759.31;;;7.64;62.55
70302;BME280;57706;56.326;43.882;2023-04-05T02:06:25;100763.56;;;7.65;62.37
70302;BME280;57706;56.326;43.882;2023-04-05T02:08:51;100756.81;;;7.63;62.25
70302;BME280;57706;56.326;43.882;2023-04-05T02:11:17;100766.47;;;7.62;62.77
70302;BME280;57706;56.326;43.882;2023-04-05T02:13:43;100764.53;;;7.64;62.36
70302;BME280;57706;56.326;43.882;2023-04-05T02:16:09;100768.13;;;7.63;63.09
70302;BME280;57706;56.326;43.882;2023-04-05T02:18:36;100780.22;;;7.64;63.06
70302;BME280;57706;56.326;43.882;2023-04-05T02:21:07;100774.72;;;7.67;63.03
70302;BME280;57706;56.326;43.882;2023-04-05T02:23:36;100779.16;;;7.77;62.24
70302;BME280;57706;56.326;43.882;2023-04-05T02:26:02;100779.56;;;7.82;62.42
70302;BME280;57706;56.326;43.882;2023-04-05T02:28:29;100778.91;;;7.90;62.12
70302;BME280;57706;56.326;43.882;2023-04-05T02:30:55;100771.47;;;7.95;62.05
70302;BME280;57706;56.326;43.882;2023-04-05T02:33:21;100775.31;;;8.01;61.98
70302;BME280;57706;56.326;43.882;2023-04-05T02:35:52;100775.91;;;8.14;61.72
70302;BME280;57706;56.326;43.882;2023-04-05T02:38:18;100774.81;;;8.26;61.34
70302;BME280;57706;56.326;43.882;2023-04-05T02:40:48;100780.44;;;8.32;61.26
70302;BME280;57706;56.326;43.882;2023-04-05T02:43:14;100774.38;;;8.41;61.32
70302;BME280;57706;56.326;43.882;2023-04-05T02:45:39;100776.31;;;8.59;60.84
70302;BME280;57706;56.326;43.882;2023-04-05T02:48:05;100770.28;;;8.68;60.41
70302;BME280;57706;56.326;43.882;2023-04-05T02:50:31;100769.56;;;8.66;60.60
70302;BME280;57706;56.326;43.882;2023-04-05T02:52:57;100774.13;;;8.64;60.82
70302;BME280;57706;56.326;43.882;2023-04-05T02:55:24;100771.75;;;8.80;60.21
70302;BME280;57706;56.326;43.882;2023-04-05T02:57:50;100777.22;;;8.97;59.89
70302;BME280;57706;56.326;43.882;2023-04-05T03:00:29;100782.72;;;9.04;59.59
70302;BME280;57706;56.326;43.882;2023-04-05T03:02:57;100778.31;;;9.04;59.38
70302;BME280;57706;56.326;43.882;2023-04-05T03:05:23;100770.84;;;9.09;59.20
70302;BME280;57706;56.326;43.882;2023-04-05T03:07:51;100780.53;;;8.99;59.80
70302;BME280;57706;56.326;43.882;2023-04-05T03:10:20;100779.38;;;9.21;59.26
70302;BME280;57706;56.326;43.882;2023-04-05T03:12:58;100785.34;;;9.42;58.71
70302;BME280;57706;56.326;43.882;2023-04-05T03:15:26;100788.25;;;9.39;58.65
70302;BME280;57706;56.326;43.882;2023-04-05T03:17:54;100796.63;;;9.52;58.13
70302;BME280;57706;56.326;43.882;2023-04-05T03:20:22;100801.69;;;9.63;57.93
70302;BME280;57706;56.326;43.882;2023-04-05T03:22:50;100805.38;;;9.71;57.68
70302;BME280;57706;56.326;43.882;2023-04-05T03:25:16;100815.56;;;9.74;57.05
70302;BME280;57706;56.326;43.882;2023-04-05T03:27:45;100809.44;;;9.83;56.74
70302;BME280;57706;56.326;43.882;2023-04-05T03:30:15;100816.72;;;9.89;56.37
70302;BME280;57706;56.326;43.882;2023-04-05T03:32:48;100813.22;;;9.99;55.73
70302;BME280;57706;56.326;43.882;2023-04-05T03:35:34;100811.28;;;10.01;55.86
70302;BME280;57706;56.326;43.882;2023-04-05T03:38:00;100817.56;;;10.08;55.52
70302;BME280;57706;56.326;43.882;2023-04-05T03:40:26;100814.94;;;10.08;55.65
70302;BME280;57706;56.326;43.882;2023-04-05T03:42:52;100822.47;;;10.21;55.53
70302;BME280;57706;56.326;43.882;2023-04-05T03:45:18;100818.19;;;10.38;55.31
70302;BME280;57706;56.326;43.882;2023-04-05T03:47:44;100823.94;;;10.52;54.79
70302;BME280;57706;56.326;43.882;2023-04-05T03:50:10;100818.75;;;10.60;54.28
70302;BME280;57706;56.326;43.882;2023-04-05T03:52:36;100818.50;;;10.71;53.99
70302;BME280;57706;56.326;43.882;2023-04-05T03:55:04;100816.91;;;10.79;53.77
70302;BME280;57706;56.326;43.882;2023-04-05T03:57:32;100819.38;;;10.80;53.51
70302;BME280;57706;56.326;43.882;2023-04-05T04:00:05;100814.00;;;10.64;54.15
70302;BME280;57706;56.326;43.882;2023-04-05T04:02:47;100817.38;;;11.00;53.27
70302;BME280;57706;56.326;43.882;2023-04-05T04:05:19;100813.44;;;11.31;52.41
70302;BME280;57706;56.326;43.882;2023-04-05T04:07:50;100815.66;;;11.44;51.78
70302;BME280;57706;56.326;43.882;2023-04-05T04:10:17;100811.44;;;11.60;50.92
70302;BME280;57706;56.326;43.882;2023-04-05T04:12:46;100827.44;;;11.75;50.40
70302;BME280;57706;56.326;43.882;2023-04-05T04:15:12;100819.75;;;11.98;49.47
70302;BME280;57706;56.326;43.882;2023-04-05T04:18:01;100821.81;;;12.21;49.28
70302;BME280;57706;56.326;43.882;2023-04-05T04:20:45;100829.09;;;12.44;48.87
70302;BME280;57706;56.326;43.882;2023-04-05T04:23:28;100827.75;;;12.56;48.37
70302;BME280;57706;56.326;43.882;2023-04-05T04:26:18;100836.66;;;12.72;47.92
70302;BME280;57706;56.326;43.882;2023-04-05T04:29:10;100846.56;;;12.86;47.09
70302;BME280;57706;56.326;43.882;2023-04-05T04:31:56;100850.16;;;13.02;46.78
70302;BME280;57706;56.326;43.882;2023-04-05T04:34:48;100849.50;;;13.00;46.15
70302;BME280;57706;56.326;43.882;2023-04-05T04:37:50;100855.44;;;13.10;45.53
70302;BME280;57706;56.326;43.882;2023-04-05T04:40:37;100851.78;;;13.19;45.31
70302;BME280;57706;56.326;43.882;2023-04-05T04:43:30;100846.84;;;13.16;45.43
70302;BME280;57706;56.326;43.882;2023-04-05T04:46:17;100852.72;;;13.35;44.67
70302;BME280;57706;56.326;43.882;2023-04-05T04:49:09;100855.88;;;13.30;43.90
70302;BME280;57706;56.326;43.882;2023-04-05T04:51:38;100848.44;;;13.42;44.07
70302;BME280;57706;56.326;43.882;2023-04-05T04:54:04;100849.94;;;13.37;44.22
70302;BME280;57706;56.326;43.882;2023-04-05T04:56:31;100844.75;;;13.60;44.12
70302;BME280;57706;56.326;43.882;2023-04-05T04:58:58;100849.28;;;13.83;43.12
70302;BME280;57706;56.326;43.882;2023-04-05T05:01:24;100846.59;;;13.91;42.71
70302;BME280;57706;56.326;43.882;2023-04-05T05:03:51;100846.41;;;13.93;41.97
70302;BME280;57706;56.326;43.882;2023-04-05T05:06:24;100843.28;;;14.21;42.19
70302;BME280;57706;56.326;43.882;2023-04-05T05:08:51;100844.16;;;14.59;41.50
70302;BME280;57706;56.326;43.882;2023-04-05T05:11:17;100848.81;;;14.96;40.58
70302;BME280;57706;56.326;43.882;2023-04-05T05:13:43;100856.03;;;15.02;39.77
70302;BME280;57706;56.326;43.882;2023-04-05T05:16:16;100850.97;;;15.31;39.65
70302;BME280;57706;56.326;43.882;2023-04-05T05:18:43;100852.56;;;15.77;39.04
70302;BME280;57706;56.326;43.882;2023-04-05T05:21:12;100846.00;;;16.09;37.83
70302;BME280;57706;56.326;43.882;2023-04-05T05:23:38;100855.44;;;16.34;37.48
70302;BME280;57706;56.326;43.882;2023-04-05T05:26:04;100852.28;;;16.45;36.77
70302;BME280;57706;56.326;43.882;2023-04-05T05:28:32;100854.34;;;16.06;36.62
70302;BME280;57706;56.326;43.882;2023-04-05T05:30:57;100862.25;;;16.43;36.75
70302;BME280;57706;56.326;43.882;2023-04-05T05:33:23;100857.22;;;16.48;36.61
70302;BME280;57706;56.326;43.882;2023-04-05T05:35:50;100867.19;;;16.97;35.74
70302;BME280;57706;56.326;43.882;2023-04-05T05:38:16;100862.91;;;17.24;35.59
70302;BME280;57706;56.326;43.882;2023-04-05T05:40:43;100862.44;;;17.56;34.80
70302;BME280;57706;56.326;43.882;2023-04-05T05:43:09;100863.50;;;17.61;34.77
70302;BME280;57706;56.326;43.882;2023-04-05T05:45:37;100858.50;;;18.00;34.09
70302;BME280;57706;56.326;43.882;2023-04-05T05:48:03;100854.09;;;18.14;33.54
70302;BME280;57706;56.326;43.882;2023-04-05T05:50:29;100853.28;;;18.21;33.55
70302;BME280;57706;56.326;43.882;2023-04-05T05:52:58;100857.75;;;18.13;33.74
70302;BME280;57706;56.326;43.882;2023-04-05T05:55:24;100858.22;;;18.24;33.33
70302;BME280;57706;56.326;43.882;2023-04-05T05:57:50;100858.63;;;18.34;32.70
70302;BME280;57706;56.326;43.882;2023-04-05T06:00:18;100856.56;;;18.29;32.97
70302;BME280;57706;56.326;43.882;2023-04-05T06:02:44;100859.63;;;18.20;33.19
70302;BME280;57706;56.326;43.882;2023-04-05T06:05:11;100870.94;;;17.86;33.23
70302;BME280;57706;56.326;43.882;2023-04-05T06:07:37;100874.47;;;17.94;33.27
70302;BME280;57706;56.326;43.882;2023-04-05T06:10:07;100882.94;;;17.69;33.58
70302;BME280;57706;56.326;43.882;2023-04-05T06:12:33;100874.03;;;17.83;33.42
70302;BME280;57706;56.326;43.882;2023-04-05T06:15:00;100874.34;;;17.60;33.47
70302;BME280;57706;56.326;43.882;2023-04-05T06:17:27;100881.03;;;17.49;33.97
70302;BME280;57706;56.326;43.882;2023-04-05T06:19:53;100878.16;;;17.99;33.65
70302;BME280;57706;56.326;43.882;2023-04-05T06:22:18;100879.53;;;18.51;32.76
70302;BME280;57706;56.326;43.882;2023-04-05T06:24:44;100876.66;;;18.66;32.31
70302;BME280;57706;56.326;43.882;2023-04-05T06:27:10;100870.50;;;18.99;32.14
70302;BME280;57706;56.326;43.882;2023-04-05T06:29:39;100873.72;;;19.48;31.27
70302;BME280;57706;56.326;43.882;2023-04-05T06:32:06;100873.75;;;20.26;30.31
70302;BME280;57706;56.326;43.882;2023-04-05T06:34:32;100877.88;;;20.54;29.85
70302;BME280;57706;56.326;43.882;2023-04-05T06:36:58;100878.50;;;19.85;30.16
70302;BME280;57706;56.326;43.882;2023-04-05T06:39:24;100875.94;;;20.94;29.48
70302;BME280;57706;56.326;43.882;2023-04-05T06:41:49;100877.00;;;21.67;28.38
70302;BME280;57706;56.326;43.882;2023-04-05T06:44:19;100876.69;;;22.49;27.96
70302;BME280;57706;56.326;43.882;2023-04-05T06:46:45;100870.09;;;23.76;25.89
70302;BME280;57706;56.326;43.882;2023-04-05T06:49:11;100869.50;;;26.55;22.47
70302;BME280;57706;56.326;43.882;2023-04-05T06:51:36;100871.06;;;29.29;19.48
70302;BME280;57706;56.326;43.882;2023-04-05T06:54:02;100861.97;;;33.31;16.44
70302;BME280;57706;56.326;43.882;2023-04-05T06:56:28;100868.72;;;35.64;15.01
70302;BME280;57706;56.326;43.882;2023-04-05T06:58:54;100858.44;;;37.35;13.72
70302;BME280;57706;56.326;43.882;2023-04-05T07:01:20;100848.03;;;39.16;11.80
70302;BME280;57706;56.326;43.882;2023-04-05T07:03:46;100846.50;;;40.21;11.24
70302;BME280;57706;56.326;43.882;2023-04-05T07:06:12;100849.63;;;41.42;10.63
70302;BME280;57706;56.326;43.882;2023-04-05T07:08:37;100843.63;;;42.03;9.99
70302;BME280;57706;56.326;43.882;2023-04-05T07:11:03;100834.63;;;43.52;9.20
70302;BME280;57706;56.326;43.882;2023-04-05T07:13:29;100844.59;;;44.02;9.01
70302;BME280;57706;56.326;43.882;2023-04-05T07:16:00;100832.63;;;45.17;7.76
70302;BME280;57706;56.326;43.882;2023-04-05T07:18:26;100832.53;;;44.25;8.52
70302;BME280;57706;56.326;43.882;2023-04-05T07:20:55;100829.53;;;41.85;9.79
70302;BME280;57706;56.326;43.882;2023-04-05T07:23:25;100828.66;;;41.18;10.12
70302;BME280;57706;56.326;43.882;2023-04-05T07:25:52;100830.69;;;38.62;11.16
70302;BME280;57706;56.326;43.882;2023-04-05T07:28:19;100827.34;;;38.32;11.48
70302;BME280;57706;56.326;43.882;2023-04-05T07:30:44;100826.75;;;37.03;12.42
70302;BME280;57706;56.326;43.882;2023-04-05T07:33:10;100833.41;;;39.00;11.29
70302;BME280;57706;56.326;43.882;2023-04-05T07:35:37;100820.94;;;38.03;11.79
70302;BME280;57706;56.326;43.882;2023-04-05T07:38:03;100831.72;;;39.81;10.67
70302;BME280;57706;56.326;43.882;2023-04-05T07:40:28;100824.19;;;39.20;10.84
70302;BME280;57706;56.326;43.882;2023-04-05T07:42:54;100833.94;;;39.46;10.50
70302;BME280;57706;56.326;43.882;2023-04-05T07:45:21;100831.06;;;40.16;10.35
70302;BME280;57706;56.326;43.882;2023-04-05T07:47:46;100833.81;;;39.71;10.47
70302;BME280;57706;56.326;43.882;2023-04-05T07:50:12;100828.19;;;41.99;8.98
70302;BME280;57706;56.326;43.882;2023-04-05T07:52:40;100829.34;;;44.93;7.88
70302;BME280;57706;56.326;43.882;2023-04-05T07:55:10;100837.53;;;46.29;7.24
70302;BME280;57706;56.326;43.882;2023-04-05T07:57:36;100827.16;;;46.55;7.13
70302;BME280;57706;56.326;43.882;2023-04-05T08:00:03;100825.22;;;47.34;6.53
70302;BME280;57706;56.326;43.882;2023-04-05T08:02:39;100823.09;;;45.00;7.53
70302;BME280;57706;56.326;43.882;2023-04-05T08:05:05;100824.03;;;45.66;7.43
70302;BME280;57706;56.326;43.882;2023-04-05T08:07:31;100818.97;;;43.29;8.70
70302;BME280;57706;56.326;43.882;2023-04-05T08:09:57;100821.34;;;42.39;8.67
70302;BME280;57706;56.326;43.882;2023-04-05T08:12:25;100834.72;;;44.57;7.94
70302;BME280;57706;56.326;43.882;2023-04-05T08:14:50;100822.44;;;46.38;7.05
70302;BME280;57706;56.326;43.882;2023-04-05T08:17:16;100827.16;;;43.94;8.31
70302;BME280;57706;56.326;43.882;2023-04-05T08:19:42;100834.66;;;44.46;7.87
70302;BME280;57706;56.326;43.882;2023-04-05T08:22:08;100821.13;;;41.78;9.22
70302;BME280;57706;56.326;43.882;2023-04-05T08:24:35;100821.09;;;41.54;9.22
70302;BME280;57706;56.326;43.882;2023-04-05T08:27:01;100825.06;;;43.80;7.78
70302;BME280;57706;56.326;43.882;2023-04-05T08:29:27;100820.06;;;45.74;7.15
70302;BME280;57706;56.326;43.882;2023-04-05T08:31:55;100819.25;;;46.39;6.92
70302;BME280;57706;56.326;43.882;2023-04-05T08:34:22;100814.84;;;46.49;6.66
70302;BME280;57706;56.326;43.882;2023-04-05T08:36:48;100810.44;;;47.48;6.47
70302;BME280;57706;56.326;43.882;2023-04-05T08:39:13;100817.72;;;47.84;6.04
70302;BME280;57706;56.326;43.882;2023-04-05T08:41:47;100813.16;;;48.43;5.81
70302;BME280;57706;56.326;43.882;2023-04-05T08:44:15;100807.06;;;47.11;6.12
70302;BME280;57706;56.326;43.882;2023-04-05T08:46:43;100808.44;;;47.52;5.70
70302;BME280;57706;56.326;43.882;2023-04-05T08:49:10;100809.13;;;46.93;6.39
70302;BME280;57706;56.326;43.882;2023-04-05T08:51:37;100810.41;;;47.52;6.23
70302;BME280;57706;56.326;43.882;2023-04-05T08:54:06;100808.88;;;47.96;5.85
70302;BME280;57706;56.326;43.882;2023-04-05T08:56:33;100809.09;;;48.52;5.53
70302;BME280;57706;56.326;43.882;2023-04-05T09:01:32;100809.41;;;48.22;5.76
70302;BME280;57706;56.326;43.882;2023-04-05T09:04:06;100807.00;;;48.25;5.72
70302;BME280;57706;56.326;43.882;2023-04-05T09:06:37;100809.31;;;48.99;5.42
70302;BME280;57706;56.326;43.882;2023-04-05T09:09:07;100812.34;;;49.09;5.37
70302;BME280;57706;56.326;43.882;2023-04-05T09:11:34;100809.53;;;49.40;5.29
70302;BME280;57706;56.326;43.882;2023-04-05T09:14:04;100803.94;;;49.40;5.41
70302;BME280;57706;56.326;43.882;2023-04-05T09:16:36;100802.38;;;49.39;5.08
70302;BME280;57706;56.326;43.882;2023-04-05T09:19:02;100808.00;;;49.63;5.17
70302;BME280;57706;56.326;43.882;2023-04-05T09:21:28;100803.06;;;48.22;5.69
70302;BME280;57706;56.326;43.882;2023-04-05T09:23:54;100808.13;;;47.39;5.87
70302;BME280;57706;56.326;43.882;2023-04-05T09:26:24;100812.16;;;48.61;5.38
70302;BME280;57706;56.326;43.882;2023-04-05T09:28:57;100809.94;;;49.11;5.12
70302;BME280;57706;56.326;43.882;2023-04-05T09:31:31;100805.94;;;48.49;5.40
70302;BME280;57706;56.326;43.882;2023-04-05T09:33:58;100799.63;;;49.63;5.08
70302;BME280;57706;56.326;43.882;2023-04-05T09:36:25;100807.84;;;49.18;5.15
70302;BME280;57706;56.326;43.882;2023-04-05T09:38:52;100805.47;;;49.92;5.16
70302;BME280;57706;56.326;43.882;2023-04-05T09:41:18;100801.44;;;49.97;4.99
70302;BME280;57706;56.326;43.882;2023-04-05T09:43:44;100796.28;;;49.44;5.32
70302;BME280;57706;56.326;43.882;2023-04-05T09:46:29;100795.94;;;49.90;5.05
70302;BME280;57706;56.326;43.882;2023-04-05T09:48:56;100809.16;;;50.09;5.12
70302;BME280;57706;56.326;43.882;2023-04-05T09:51:22;100801.34;;;50.45;4.66
70302;BME280;57706;56.326;43.882;2023-04-05T09:54:03;100797.84;;;49.96;5.05
70302;BME280;57706;56.326;43.882;2023-04-05T09:56:34;100802.69;;;49.17;5.25
70302;BME280;57706;56.326;43.882;2023-04-05T09:59:01;100797.81;;;48.62;5.64
70302;BME280;57706;56.326;43.882;2023-04-05T10:01:31;100805.66;;;47.49;6.04
70302;BME280;57706;56.326;43.882;2023-04-05T10:03:57;100811.69;;;47.93;6.03
70302;BME280;57706;56.326;43.882;2023-04-05T10:06:40;100808.16;;;47.85;5.96
70302;BME280;57706;56.326;43.882;2023-04-05T10:09:08;100804.91;;;46.55;6.42
70302;BME280;57706;56.326;43.882;2023-04-05T10:11:36;100810.97;;;46.21;6.79
70302;BME280;57706;56.326;43.882;2023-04-05T10:14:04;100806.50;;;46.67;6.58
70302;BME280;57706;56.326;43.882;2023-04-05T10:16:50;100805.03;;;45.97;6.98
70302;BME280;57706;56.326;43.882;2023-04-05T10:19:47;100805.00;;;45.75;6.91
70302;BME280;57706;56.326;43.882;2023-04-05T10:22:22;100805.72;;;45.36;7.33
70302;BME280;57706;56.326;43.882;2023-04-05T10:24:53;100805.78;;;45.47;7.27
70302;BME280;57706;56.326;43.882;2023-04-05T10:27:43;100809.38;;;45.98;7.08
70302;BME280;57706;56.326;43.882;2023-04-05T10:30:12;100800.63;;;46.25;6.95
70302;BME280;57706;56.326;43.882;2023-04-05T10:38:29;100805.41;;;46.25;6.85
70302;BME280;57706;56.326;43.882;2023-04-05T10:41:08;100805.00;;;46.23;7.04
70302;BME280;57706;56.326;43.882;2023-04-05T10:43:36;100809.25;;;46.75;6.59
70302;BME280;57706;56.326;43.882;2023-04-05T10:46:03;100801.00;;;46.35;6.70
70302;BME280;57706;56.326;43.882;2023-04-05T10:48:36;100799.44;;;46.26;6.57
70302;BME280;57706;56.326;43.882;2023-04-05T10:51:06;100799.84;;;46.14;6.90
70302;BME280;57706;56.326;43.882;2023-04-05T10:53:32;100789.53;;;46.25;6.77
70302;BME280;57706;56.326;43.882;2023-04-05T10:56:00;100792.06;;;46.98;6.28
70302;BME280;57706;56.326;43.882;2023-04-05T10:58:27;100797.50;;;45.72;6.86
70302;BME280;57706;56.326;43.882;2023-04-05T11:00:54;100794.69;;;46.30;6.76
70302;BME280;57706;56.326;43.882;2023-04-05T11:03:49;100793.13;;;45.57;6.79
70302;BME280;57706;56.326;43.882;2023-04-05T11:08:46;100791.53;;;45.92;6.68
70302;BME280;57706;56.326;43.882;2023-04-05T11:11:15;100785.06;;;46.64;6.29
70302;BME280;57706;56.326;43.882;2023-04-05T11:13:55;100788.31;;;45.32;6.69
70302;BME280;57706;56.326;43.882;2023-04-05T11:16:23;100791.44;;;45.05;6.58
70302;BME280;57706;56.326;43.882;2023-04-05T11:18:50;100781.00;;;44.69;7.19
70302;BME280;57706;56.326;43.882;2023-04-05T11:21:23;100787.97;;;45.51;6.84
70302;BME280;57706;56.326;43.882;2023-04-05T11:24:07;100796.25;;;45.41;6.63
70302;BME280;57706;56.326;43.882;2023-04-05T11:26:52;100796.38;;;44.03;7.04
70302;BME280;57706;56.326;43.882;2023-04-05T11:29:45;100791.94;;;44.51;6.94
70302;BME280;57706;56.326;43.882;2023-04-05T11:32:12;100803.00;;;44.47;6.89
70302;BME280;57706;56.326;43.882;2023-04-05T11:34:41;100799.44;;;43.91;7.24
70302;BME280;57706;56.326;43.882;2023-04-05T11:37:07;100795.22;;;43.63;7.14
70302;BME280;57706;56.326;43.882;2023-04-05T11:39:32;100794.44;;;42.90;8.07
70302;BME280;57706;56.326;43.882;2023-04-05T11:42:06;100795.94;;;43.52;7.50
70302;BME280;57706;56.326;43.882;2023-04-05T11:47:07;100800.63;;;44.42;7.29
70302;BME280;57706;56.326;43.882;2023-04-05T11:49:33;100799.47;;;43.94;7.24
70302;BME280;57706;56.326;43.882;2023-04-05T11:52:14;100788.88;;;44.71;7.06
70302;BME280;57706;56.326;43.882;2023-04-05T11:54:40;100795.84;;;43.86;7.62
70302;BME280;57706;56.326;43.882;2023-04-05T11:57:18;100787.31;;;44.73;7.23
70302;BME280;57706;56.326;43.882;2023-04-05T11:59:45;100790.38;;;44.50;7.32
70302;BME280;57706;56.326;43.882;2023-04-05T12:02:11;100784.09;;;44.60;7.13
70302;BME280;57706;56.326;43.882;2023-04-05T12:04:37;100786.47;;;42.85;7.48
70302;BME280;57706;56.326;43.882;2023-04-05T12:07:25;100784.56;;;43.23;8.04
70302;BME280;57706;56.326;43.882;2023-04-05T12:09:58;100783.72;;;42.04;8.43
70302;BME280;57706;56.326;43.882;2023-04-05T12:12:24;100783.88;;;43.33;8.11
70302;BME280;57706;56.326;43.882;2023-04-05T12:14:50;100784.63;;;41.22;9.06
70302;BME280;57706;56.326;43.882;2023-04-05T12:17:15;100781.94;;;41.92;8.75
70302;BME280;57706;56.326;43.882;2023-04-05T12:19:41;100777.69;;;42.48;8.08
70302;BME280;57706;56.326;43.882;2023-04-05T12:22:07;100782.22;;;43.25;7.96
70302;BME280;57706;56.326;43.882;2023-04-05T12:24:34;100778.97;;;43.16;8.00
70302;BME280;57706;56.326;43.882;2023-04-05T12:27:00;100776.97;;;42.24;8.17
70302;BME280;57706;56.326;43.882;2023-04-05T12:29:26;100782.22;;;41.83;8.77
70302;BME280;57706;56.326;43.882;2023-04-05T12:31:54;100780.53;;;42.02;8.63
70302;BME280;57706;56.326;43.882;2023-04-05T12:34:23;100771.81;;;41.53;8.79
70302;BME280;57706;56.326;43.882;2023-04-05T12:36:50;100775.41;;;41.34;8.93
70302;BME280;57706;56.326;43.882;2023-04-05T12:39:17;100778.09;;;41.10;9.20
70302;BME280;57706;56.326;43.882;2023-04-05T12:41:42;100784.56;;;41.38;8.91
70302;BME280;57706;56.326;43.882;2023-04-05T12:44:15;100781.53;;;40.48;9.53
70302;BME280;57706;56.326;43.882;2023-04-05T12:46:45;100783.59;;;40.35;9.49
70302;BME280;57706;56.326;43.882;2023-04-05T12:49:14;100779.72;;;40.92;9.37
70302;BME280;57706;56.326;43.882;2023-04-05T12:51:41;100780.56;;;40.08;9.64
70302;BME280;57706;56.326;43.882;2023-04-05T12:54:11;100785.53;;;39.86;9.86
70302;BME280;57706;56.326;43.882;2023-04-05T12:56:38;100784.44;;;38.02;11.01
70302;BME280;57706;56.326;43.882;2023-04-05T12:59:07;100789.81;;;38.98;10.52
70302;BME280;57706;56.326;43.882;2023-04-05T13:01:33;100785.03;;;38.08;10.85
70302;BME280;57706;56.326;43.882;2023-04-05T13:04:00;100778.06;;;38.35;10.71
70302;BME280;57706;56.326;43.882;2023-04-05T13:06:26;100785.13;;;37.99;10.84
70302;BME280;57706;56.326;43.882;2023-04-05T13:08:52;100787.19;;;38.02;11.04
70302;BME280;57706;56.326;43.882;2023-04-05T13:11:18;100786.69;;;37.87;10.96
70302;BME280;57706;56.326;43.882;2023-04-05T13:13:44;100790.25;;;37.54;11.37
70302;BME280;57706;56.326;43.882;2023-04-05T13:16:10;100785.78;;;37.16;11.27
70302;BME280;57706;56.326;43.882;2023-04-05T13:18:36;100796.47;;;36.78;11.47
70302;BME280;57706;56.326;43.882;2023-04-05T13:21:02;100789.88;;;36.80;11.66